Time;durP1;ratioP1;P1;durP2;ratioP2;P2;SDS_P1;SDS_P2;PMS_P1;PMS_P2;Temp;Humidity;BMP_temperature;BMP_pressure;BME280_temperature;BME280_humidity;BME280_pressure;Samples;Min_cycle;Max_cycle;Signal;HPM_P1;HPM_P2
2022/10/01 00:01:14;;;;;;;5.80;3.65;;;;;;;11.15;100.00;99810.19;5068630;28;20051;-66
2022/10/01 00:03:40;;;;;;;6.15;3.70;;;;;;;11.11;100.00;99789.94;5067069;28;20058;-66
2022/10/01 00:06:17;;;;;;;5.95;3.55;;;;;;;11.18;100.00;99802.09;5065623;28;20028;-66
2022/10/01 00:08:47;;;;;;;5.18;3.40;;;;;;;11.16;100.00;99811.91;5054863;28;20025;-66
2022/10/01 00:11:22;;;;;;;7.05;4.20;;;;;;;11.12;100.00;99799.69;5048621;28;20074;-66
2022/10/01 00:13:49;;;;;;;6.60;3.80;;;;;;;11.17;100.00;99808.34;5048845;28;20061;-66
2022/10/01 00:16:18;;;;;;;6.60;3.92;;;;;;;11.09;100.00;99800.66;5048147;28;20530;-66
2022/10/01 00:18:45;;;;;;;6.32;4.00;;;;;;;11.18;100.00;99810.09;5050195;28;20029;-66
2022/10/01 00:21:17;;;;;;;5.82;3.83;;;;;;;11.17;100.00;99805.69;5049907;28;20530;-65
2022/10/01 00:23:42;;;;;;;5.25;3.45;;;;;;;11.19;100.00;99801.16;5058294;28;20031;-65
2022/10/01 00:26:15;;;;;;;6.97;4.03;;;;;;;11.24;100.00;99796.53;5069905;28;20108;-65
2022/10/01 00:28:42;;;;;;;9.48;3.55;;;;;;;11.21;100.00;99794.88;5070387;28;20028;-65
2022/10/01 00:31:09;;;;;;;5.88;3.67;;;;;;;11.29;100.00;99802.53;5069920;28;20043;-65
2022/10/01 00:33:35;;;;;;;6.18;4.00;;;;;;;11.30;100.00;99804.28;5069936;28;20044;-65
2022/10/01 00:36:02;;;;;;;6.57;3.75;;;;;;;11.32;100.00;99805.94;5069508;28;20027;-66
2022/10/01 00:38:28;;;;;;;6.40;3.63;;;;;;;11.35;100.00;99803.16;5058195;28;20029;-66
2022/10/01 00:40:54;;;;;;;5.95;3.70;;;;;;;11.27;100.00;99794.63;5049244;28;20047;-67
2022/10/01 00:43:22;;;;;;;6.80;3.78;;;;;;;11.38;100.00;99807.53;5049809;28;20542;-65
2022/10/01 00:45:48;;;;;;;6.32;3.75;;;;;;;11.35;100.00;99794.34;5049377;28;20147;-65
2022/10/01 00:48:15;;;;;;;5.63;3.83;;;;;;;11.43;100.00;99808.22;5049736;28;20025;-66
2022/10/01 00:50:42;;;;;;;6.22;3.72;;;;;;;11.43;100.00;99805.53;5049856;28;20531;-66
2022/10/01 00:53:10;;;;;;;6.28;3.85;;;;;;;11.44;100.00;99807.25;5048532;28;20035;-65
2022/10/01 00:55:50;;;;;;;6.38;3.83;;;;;;;11.43;100.00;99805.53;5046604;28;20044;-66
2022/10/01 00:58:17;;;;;;;7.10;3.95;;;;;;;11.44;100.00;99801.94;5048228;28;20024;-66
2022/10/01 01:00:43;;;;;;;6.10;3.40;;;;;;;11.44;100.00;99801.94;5049043;28;20025;-66
2022/10/01 01:03:09;;;;;;;8.82;4.40;;;;;;;11.44;100.00;99796.63;5050872;28;20025;-65
2022/10/01 01:05:35;;;;;;;5.43;3.40;;;;;;;11.44;100.00;99788.63;5066938;28;20585;-65
2022/10/01 01:08:02;;;;;;;6.28;3.30;;;;;;;11.34;100.00;99776.59;5062003;28;20017;-66
2022/10/01 01:10:56;;;;;;;5.95;3.47;;;;;;;11.44;100.00;99801.94;5067182;28;20024;-66
2022/10/01 01:13:58;;;;;;;5.38;3.38;;;;;;;11.43;100.00;99790.41;5069307;28;20451;-66
2022/10/01 01:16:34;;;;;;;4.78;3.08;;;;;;;11.37;100.00;99773.81;5068636;28;20143;-66
2022/10/01 01:19:24;;;;;;;5.95;3.42;;;;;;;11.48;100.00;99784.94;5068751;28;20024;-66
2022/10/01 01:21:55;;;;;;;4.93;3.17;;;;;;;11.51;100.00;99774.16;5068963;28;20029;-66
2022/10/01 01:24:29;;;;;;;6.68;3.83;;;;;;;11.56;100.00;99769.50;5069519;28;20032;-65
2022/10/01 01:27:08;;;;;;;6.22;3.00;;;;;;;11.60;100.00;99776.41;5069220;28;20032;-66
2022/10/01 01:29:46;;;;;;;6.47;3.30;;;;;;;11.63;100.00;99771.88;5069049;28;20020;-65
2022/10/01 01:32:29;;;;;;;6.40;3.47;;;;;;;11.67;100.00;99765.50;5069481;28;20029;-65
2022/10/01 01:34:59;;;;;;;7.45;3.58;;;;;;;11.69;100.00;99754.78;5069275;28;20439;-66
2022/10/01 01:37:30;;;;;;;5.15;2.97;;;;;;;11.69;100.00;99749.44;5054506;28;20028;-66
2022/10/01 01:39:58;;;;;;;5.50;3.38;;;;;;;11.62;100.00;99731.94;5049446;28;20433;-66
2022/10/01 01:42:35;;;;;;;5.53;3.05;;;;;;;11.77;100.00;99742.00;5049450;28;20044;-66
2022/10/01 01:45:06;;;;;;;4.63;2.78;;;;;;;11.82;100.00;99732.91;5049467;28;20028;-65
2022/10/01 01:47:33;;;;;;;4.90;2.85;;;;;;;11.88;100.00;99735.28;5049016;28;20032;-65
2022/10/01 01:50:01;;;;;;;5.80;2.75;;;;;;;11.88;100.00;99734.41;5048968;28;20021;-66
2022/10/01 01:52:28;;;;;;;4.78;2.53;;;;;;;11.82;100.00;99713.38;5063305;28;20771;-66
2022/10/01 01:54:55;;;;;;;5.10;3.25;;;;;;;11.92;100.00;99728.03;5072580;28;20056;-66
2022/10/01 01:57:21;;;;;;;4.93;2.90;;;;;;;11.94;100.00;99734.19;5072369;28;20550;-66
2022/10/01 01:59:47;;;;;;;4.15;2.88;;;;;;;11.93;100.00;99732.44;5072748;28;20511;-65
2022/10/01 02:02:18;;;;;;;4.55;2.60;;;;;;;11.89;100.00;99720.19;5072353;28;20479;-66
2022/10/01 02:04:55;;;;;;;4.07;2.45;;;;;;;11.97;100.00;99734.03;5090022;28;20024;-66
2022/10/01 02:07:27;;;;;;;6.53;3.22;;;;;;;11.93;100.00;99727.09;5084124;28;20036;-65
2022/10/01 02:10:30;;;;;;;3.60;2.67;;;;;;;11.98;100.00;99730.44;5072221;28;20025;-65
2022/10/01 02:13:14;;;;;;;4.45;2.42;;;;;;;12.09;100.00;99716.66;5072768;28;20036;-66
2022/10/01 02:15:47;;;;;;;4.50;3.00;;;;;;;12.14;100.00;99723.50;5072162;28;20103;-66
2022/10/01 02:18:19;;;;;;;5.78;3.25;;;;;;;12.17;100.00;99712.72;5072448;28;20032;-66
2022/10/01 02:20:52;;;;;;;3.85;2.15;;;;;;;12.04;100.00;99711.53;5072327;28;20039;-65
2022/10/01 02:23:27;;;;;;;5.63;3.03;;;;;;;11.93;100.00;99695.13;5072611;28;20032;-66
2022/10/01 02:26:00;;;;;;;6.70;3.17;;;;;;;12.02;100.00;99712.50;5068004;28;20028;-66
2022/10/01 02:28:27;;;;;;;10.63;3.15;;;;;;;12.02;100.00;99710.72;5052040;28;20051;-65
2022/10/01 02:30:55;;;;;;;8.95;2.88;;;;;;;11.94;100.00;99688.88;5052228;28;20096;-66
2022/10/01 02:33:25;;;;;;;9.32;3.33;;;;;;;12.04;100.00;99695.53;5052207;28;20032;-66
2022/10/01 02:35:53;;;;;;;4.05;2.25;;;;;;;12.00;100.00;99690.38;5051649;28;20086;-65
2022/10/01 02:38:23;;;;;;;7.38;2.83;;;;;;;12.05;100.00;99691.06;5052122;28;20028;-66
2022/10/01 02:40:50;;;;;;;5.22;2.50;;;;;;;12.06;100.00;99690.13;5051974;28;20538;-66
2022/10/01 02:43:24;;;;;;;2.97;2.30;;;;;;;12.07;100.00;99687.41;5051875;28;20028;-66
2022/10/01 02:45:57;;;;;;;4.85;2.33;;;;;;;12.04;100.00;99692.88;5051559;28;20040;-66
2022/10/01 02:48:23;;;;;;;3.87;2.30;;;;;;;12.01;100.00;99703.63;5052112;28;20540;-65
2022/10/01 02:51:14;;;;;;;4.55;2.40;;;;;;;12.02;100.00;99702.72;5051466;28;20100;-66
2022/10/01 02:53:46;;;;;;;3.83;2.40;;;;;;;12.01;100.00;99706.31;5051168;28;20036;-66
2022/10/01 02:58:58;;;;;;;3.83;2.45;;;;;;;12.01;100.00;99692.97;5060395;28;20091;-66
2022/10/01 03:01:24;;;;;;;3.85;2.25;;;;;;;12.00;100.00;99693.03;5051649;28;20476;-66
2022/10/01 03:03:49;;;;;;;3.58;2.03;;;;;;;11.98;100.00;99686.94;5061438;28;20023;-65
2022/10/01 03:06:14;;;;;;;3.78;2.58;;;;;;;12.00;100.00;99693.91;5069144;28;20093;-65
2022/10/01 03:08:40;;;;;;;3.83;2.20;;;;;;;11.99;100.00;99684.22;5052236;28;20025;-65
2022/10/01 03:11:07;;;;;;;4.22;2.25;;;;;;;12.08;100.00;99694.44;5051174;28;20380;-66
2022/10/01 03:13:33;;;;;;;3.95;2.13;;;;;;;12.12;100.00;99690.72;5071085;28;20554;-66
2022/10/01 03:15:58;;;;;;;6.03;2.33;;;;;;;12.21;100.00;99684.13;5070901;28;20104;-66
2022/10/01 03:18:24;;;;;;;3.15;2.03;;;;;;;12.23;100.00;99688.44;5071242;28;20139;-66
2022/10/01 03:20:49;;;;;;;4.97;2.25;;;;;;;12.19;100.00;99686.84;5071220;28;20050;-66
2022/10/01 03:23:14;;;;;;;3.80;2.58;;;;;;;12.20;100.00;99677.91;5069631;28;20103;-66
2022/10/01 03:25:40;;;;;;;3.75;2.40;;;;;;;12.23;100.00;99683.13;5071059;28;20023;-66
2022/10/01 03:28:05;;;;;;;4.40;2.90;;;;;;;12.22;100.00;99681.41;5071491;28;20085;-66
2022/10/01 03:30:32;;;;;;;3.72;2.47;;;;;;;12.21;100.00;99666.31;5054452;28;20124;-66
2022/10/01 03:32:57;;;;;;;4.53;2.40;;;;;;;12.27;100.00;99679.38;5050640;28;20430;-65
2022/10/01 03:35:23;;;;;;;6.50;2.45;;;;;;;12.32;100.00;99665.84;5050850;28;20032;-66
2022/10/01 03:37:49;;;;;;;3.13;1.75;;;;;;;12.28;100.00;99670.44;5051328;28;20021;-66
2022/10/01 03:40:14;;;;;;;9.25;2.80;;;;;;;12.34;100.00;99669.31;5050838;28;20035;-65
2022/10/01 03:42:40;;;;;;;3.88;2.00;;;;;;;12.33;100.00;99668.44;5050986;28;20024;-65
2022/10/01 03:45:05;;;;;;;9.10;2.72;;;;;;;12.35;100.00;99671.91;5050738;28;20064;-65
2022/10/01 03:47:31;;;;;;;5.40;2.22;;;;;;;12.36;100.00;99668.28;5050618;28;20116;-65
2022/10/01 03:49:56;;;;;;;6.75;2.05;;;;;;;12.35;100.00;99660.38;5050800;28;20033;-65
2022/10/01 03:52:21;;;;;;;6.15;2.33;;;;;;;12.40;100.00;99648.56;5050486;28;20048;-67
2022/10/01 03:54:47;;;;;;;2.50;1.90;;;;;;;12.42;100.00;99652.00;5050361;28;20049;-65
2022/10/01 03:57:12;;;;;;;4.03;1.77;;;;;;;12.42;100.00;99652.00;5050365;28;20447;-67
2022/10/01 03:59:38;;;;;;;5.35;2.05;;;;;;;12.45;100.00;99646.56;5050698;28;20029;-67
2022/10/01 04:02:04;;;;;;;4.63;2.17;;;;;;;12.47;100.00;99639.31;5064239;28;20048;-66
2022/10/01 04:04:30;;;;;;;3.60;1.98;;;;;;;12.43;100.00;99632.41;5082909;28;20023;-66
2022/10/01 04:06:55;;;;;;;4.90;2.08;;;;;;;12.51;99.61;99651.59;5090232;28;20030;-65
2022/10/01 04:09:20;;;;;;;6.18;2.25;;;;;;;12.54;98.97;99646.09;5052800;28;20017;-65
2022/10/01 04:11:46;;;;;;;4.38;1.85;;;;;;;12.57;98.90;99650.47;5065921;28;20031;-65
2022/10/01 04:14:11;;;;;;;5.75;2.15;;;;;;;12.60;98.36;99643.16;5070221;28;20108;-66
2022/10/01 04:16:37;;;;;;;4.28;1.98;;;;;;;12.60;97.53;99651.16;5069369;28;20486;-65
2022/10/01 04:19:03;;;;;;;9.18;2.00;;;;;;;12.59;97.24;99644.09;5068704;28;20081;-65
2022/10/01 04:21:29;;;;;;;5.03;2.50;;;;;;;12.61;97.42;99641.34;5070346;28;20082;-66
2022/10/01 04:23:54;;;;;;;2.20;1.48;;;;;;;12.68;98.18;99653.47;5070554;28;20499;-66
2022/10/01 04:26:19;;;;;;;4.00;1.98;;;;;;;12.67;98.39;99647.25;5069542;28;20028;-66
2022/10/01 04:28:45;;;;;;;5.32;1.73;;;;;;;12.81;97.22;99636.81;5070125;28;20390;-67
2022/10/01 04:31:24;;;;;;;5.68;2.13;;;;;;;12.74;97.80;99643.38;5070316;28;20028;-66
2022/10/01 04:33:50;;;;;;;2.17;1.52;;;;;;;12.69;98.60;99633.84;5070388;28;20079;-66
2022/10/01 04:36:16;;;;;;;3.22;1.85;;;;;;;12.80;97.76;99639.56;5056620;28;20104;-66
2022/10/01 04:38:41;;;;;;;5.15;1.85;;;;;;;12.80;98.81;99645.75;5048986;28;20124;-67
2022/10/01 04:41:08;;;;;;;4.53;2.03;;;;;;;12.76;99.36;99643.31;5049722;28;20032;-67
2022/10/01 04:43:33;;;;;;;2.70;1.65;;;;;;;12.73;100.00;99652.34;5050128;28;20033;-67
2022/10/01 04:45:58;;;;;;;4.35;2.00;;;;;;;12.59;100.00;99648.56;5049453;28;20036;-67
2022/10/01 04:48:24;;;;;;;5.35;2.47;;;;;;;12.52;100.00;99637.31;5050197;28;20045;-67
2022/10/01 04:50:49;;;;;;;10.07;2.85;;;;;;;12.57;100.00;99629.94;5049622;28;20025;-67
2022/10/01 04:53:15;;;;;;;5.18;2.20;;;;;;;12.67;100.00;99641.94;5049880;28;20029;-67
2022/10/01 04:55:41;;;;;;;4.00;2.20;;;;;;;12.67;100.00;99641.94;5049617;28;20047;-67
2022/10/01 04:58:07;;;;;;;4.07;2.30;;;;;;;12.59;100.00;99643.22;5061015;28;20025;-68
2022/10/01 05:00:32;;;;;;;3.53;2.53;;;;;;;12.47;100.00;99623.31;5068446;28;20037;-68
2022/10/01 05:02:58;;;;;;;3.72;2.30;;;;;;;12.50;100.00;99631.19;5072611;28;20426;-69
2022/10/01 05:05:26;;;;;;;4.40;2.60;;;;;;;12.47;100.00;99631.31;5076225;28;20021;-70
2022/10/01 05:07:51;;;;;;;4.88;2.85;;;;;;;12.35;100.00;99613.22;5050024;28;20033;-69
2022/10/01 05:10:20;;;;;;;4.20;2.20;;;;;;;12.45;100.00;99627.88;5055494;28;20537;-69
2022/10/01 05:12:46;;;;;;;4.22;2.25;;;;;;;12.37;100.00;99616.66;5068506;28;20040;-69
2022/10/01 05:15:13;;;;;;;4.47;2.80;;;;;;;12.43;100.00;99613.75;5070064;28;20068;-69
2022/10/01 05:17:38;;;;;;;4.28;2.22;;;;;;;12.40;100.00;99616.56;5069834;28;20032;-70
2022/10/01 05:20:05;;;;;;;6.43;2.78;;;;;;;12.39;100.00;99614.81;5069841;28;20074;-70
2022/10/01 05:22:31;;;;;;;3.83;2.13;;;;;;;12.41;100.00;99612.94;5070045;28;20082;-71
2022/10/01 05:24:59;;;;;;;6.85;2.65;;;;;;;12.40;100.00;99615.69;5068302;28;20044;-71
2022/10/01 05:27:25;;;;;;;3.55;2.35;;;;;;;12.38;100.00;99606.88;5069954;28;20479;-71
2022/10/01 05:29:52;;;;;;;4.60;2.47;;;;;;;12.34;100.00;99600.81;5072334;28;20035;-72
2022/10/01 05:32:17;;;;;;;4.45;2.45;;;;;;;12.34;100.00;99599.97;5074077;28;20030;-72
2022/10/01 05:34:43;;;;;;;3.75;2.17;;;;;;;12.38;100.00;99606.88;5060995;28;20050;-74
2022/10/01 05:37:09;;;;;;;6.95;2.67;;;;;;;12.40;100.00;99595.22;5053763;28;20090;-73
2022/10/01 05:39:35;;;;;;;4.65;1.95;;;;;;;12.29;100.00;99580.66;5052552;28;20048;-74
2022/10/01 05:42:03;;;;;;;5.63;2.47;;;;;;;12.35;100.00;99586.56;5053625;28;20017;-75
2022/10/01 05:44:31;;;;;;;8.23;2.42;;;;;;;12.36;100.00;99588.28;5053792;28;20499;-75
2022/10/01 05:46:57;;;;;;;4.20;2.17;;;;;;;12.37;100.00;99590.00;5053101;28;20048;-75
2022/10/01 05:49:24;;;;;;;4.53;2.40;;;;;;;12.42;100.00;99576.47;5053557;28;20100;-75
2022/10/01 05:51:49;;;;;;;4.78;2.47;;;;;;;12.42;100.00;99563.97;5053027;28;20025;-74
2022/10/01 05:54:18;;;;;;;5.88;2.95;;;;;;;12.35;100.00;99559.91;5053439;28;20051;-74
2022/10/01 05:56:44;;;;;;;3.88;2.13;;;;;;;12.38;100.00;99565.06;5068778;28;20107;-74
2022/10/01 05:59:10;;;;;;;4.32;2.70;;;;;;;12.34;100.00;99558.16;5073448;28;20136;-74
2022/10/01 06:01:36;;;;;;;6.00;2.60;;;;;;;12.41;100.00;99564.06;5072667;28;20016;-74
2022/10/01 06:04:01;;;;;;;4.00;2.20;;;;;;;12.39;100.00;99561.47;5083540;28;20437;-74
2022/10/01 06:06:28;;;;;;;4.40;2.50;;;;;;;12.40;100.00;99565.88;5072283;28;20033;-73
2022/10/01 06:08:53;;;;;;;6.22;2.90;;;;;;;12.39;100.00;99571.28;5057916;28;20037;-73
2022/10/01 06:11:22;;;;;;;4.43;2.13;;;;;;;12.41;100.00;99574.72;5052514;28;20028;-72
2022/10/01 06:13:48;;;;;;;2.85;1.98;;;;;;;12.39;100.00;99560.63;5051408;28;20032;-73
2022/10/01 06:16:14;;;;;;;5.05;3.28;;;;;;;12.37;100.00;99558.00;5052505;28;20036;-73
2022/10/01 06:18:40;;;;;;;6.88;2.78;;;;;;;12.46;100.00;99568.25;5053359;28;20033;-73
2022/10/01 06:21:06;;;;;;;6.30;2.72;;;;;;;12.44;100.00;99575.44;5052425;28;20025;-73
2022/10/01 06:23:32;;;;;;;7.32;2.85;;;;;;;12.44;100.00;99579.91;5052541;28;20033;-72
2022/10/01 06:26:00;;;;;;;4.55;2.33;;;;;;;12.41;100.00;99593.38;5052322;28;20498;-72
2022/10/01 06:28:26;;;;;;;4.88;2.40;;;;;;;12.42;100.00;99597.81;5051040;28;20017;-73
2022/10/01 06:30:52;;;;;;;3.63;2.05;;;;;;;12.37;100.00;99595.34;5051332;28;20025;-72
2022/10/01 06:33:17;;;;;;;7.60;2.70;;;;;;;12.35;100.00;99586.56;5051155;28;20055;-72
2022/10/01 06:35:50;;;;;;;5.28;2.40;;;;;;;12.45;100.00;99597.66;5052210;28;20032;-72
2022/10/01 06:38:21;;;;;;;9.43;3.00;;;;;;;12.43;100.00;99571.06;5051520;28;20036;-75
2022/10/01 06:40:54;;;;;;;3.08;2.00;;;;;;;12.44;100.00;99579.91;5052039;28;20395;-72
2022/10/01 06:43:21;;;;;;;3.22;2.40;;;;;;;12.49;100.00;99585.88;5051400;28;20021;-73
2022/10/01 06:45:46;;;;;;;6.18;2.47;;;;;;;12.51;100.00;99576.91;5055700;28;20028;-72
2022/10/01 06:48:14;;;;;;;5.40;2.83;;;;;;;12.42;100.00;99577.31;5071431;28;20036;-71
2022/10/01 06:50:40;;;;;;;6.20;2.53;;;;;;;12.48;100.00;99568.16;5071297;28;20024;-72
2022/10/01 06:53:06;;;;;;;5.63;2.25;;;;;;;12.50;100.00;99545.84;5069360;28;20392;-72
2022/10/01 06:55:33;;;;;;;3.90;2.63;;;;;;;12.44;100.00;99548.78;5070647;28;20041;-69
2022/10/01 06:58:04;;;;;;;7.20;2.67;;;;;;;12.45;100.00;99547.84;5072143;28;20054;-69
2022/10/01 07:00:31;;;;;;;5.10;2.45;;;;;;;12.45;100.00;99542.53;5071867;28;20409;-68
2022/10/01 07:02:56;;;;;;;4.97;2.30;;;;;;;12.45;100.00;99550.53;5070779;28;20474;-68
2022/10/01 07:05:23;;;;;;;8.10;2.90;;;;;;;12.46;100.00;99552.25;5073111;28;20090;-68
2022/10/01 07:07:49;;;;;;;4.03;2.17;;;;;;;12.47;100.00;99555.78;5063824;28;20106;-68
2022/10/01 07:10:18;;;;;;;4.20;2.45;;;;;;;12.54;100.00;99552.72;5051748;28;20025;-67
2022/10/01 07:12:44;;;;;;;6.93;3.17;;;;;;;12.60;100.00;99565.78;5051647;28;20023;-68
2022/10/01 07:15:10;;;;;;;5.13;2.25;;;;;;;12.56;100.00;99564.22;5055526;28;20074;-67
2022/10/01 07:17:43;;;;;;;7.85;2.35;;;;;;;12.62;100.00;99555.91;5069185;28;20028;-68
2022/10/01 07:20:09;;;;;;;3.60;2.00;;;;;;;12.55;100.00;99550.94;5069859;28;20056;-67
2022/10/01 07:22:35;;;;;;;3.40;2.00;;;;;;;12.59;100.00;99558.72;5069449;28;20534;-66
2022/10/01 07:25:01;;;;;;;4.68;2.20;;;;;;;12.59;100.00;99569.38;5069890;28;20085;-67
2022/10/01 07:27:26;;;;;;;6.60;2.50;;;;;;;12.57;100.00;99573.94;5068929;28;20032;-67
2022/10/01 07:29:52;;;;;;;6.57;2.67;;;;;;;12.58;100.00;99570.34;5067517;28;20060;-67
2022/10/01 07:32:17;;;;;;;5.65;2.10;;;;;;;12.59;100.00;99577.41;5070467;28;20089;-67
2022/10/01 07:34:43;;;;;;;3.47;2.30;;;;;;;12.63;100.00;99575.44;5071219;28;20037;-68
2022/10/01 07:37:09;;;;;;;5.43;2.10;;;;;;;12.61;100.00;99578.19;5070527;28;20068;-67
2022/10/01 07:39:36;;;;;;;5.32;2.40;;;;;;;12.52;100.00;99578.63;5050726;28;20415;-67
2022/10/01 07:42:02;;;;;;;11.75;2.70;;;;;;;12.62;100.00;99579.91;5065289;28;20020;-68
2022/10/01 07:44:28;;;;;;;4.13;2.38;;;;;;;12.59;100.00;99577.41;5071127;28;20034;-68
2022/10/01 07:46:54;;;;;;;6.95;2.72;;;;;;;12.58;100.00;99578.34;5070497;28;20024;-69
2022/10/01 07:49:20;;;;;;;5.25;2.17;;;;;;;12.51;100.00;99568.91;5069950;28;20020;-68
2022/10/01 07:51:47;;;;;;;6.70;2.50;;;;;;;12.58;100.00;99581.00;5069797;28;20069;-68
2022/10/01 07:54:13;;;;;;;4.88;2.20;;;;;;;12.54;100.00;99582.06;5063756;28;20078;-69
2022/10/01 07:56:38;;;;;;;4.20;2.42;;;;;;;12.57;100.00;99581.94;5066918;28;20042;-69
2022/10/01 07:59:04;;;;;;;4.18;2.10;;;;;;;12.57;100.00;99576.59;5091053;28;20030;-69
2022/10/01 08:01:30;;;;;;;5.00;2.53;;;;;;;12.51;100.00;99571.56;5090789;28;20024;-70
2022/10/01 08:03:56;;;;;;;4.97;2.75;;;;;;;12.67;100.00;99575.22;5078353;28;20028;-70
2022/10/01 08:06:21;;;;;;;3.80;2.30;;;;;;;12.64;100.00;99572.69;5068457;28;20507;-70
2022/10/01 08:08:47;;;;;;;9.63;2.65;;;;;;;12.62;100.00;99563.06;5061088;28;20547;-71
2022/10/01 08:11:16;;;;;;;4.22;2.67;;;;;;;12.63;100.00;99570.13;5066807;28;20048;-72
2022/10/01 08:13:44;;;;;;;4.97;2.50;;;;;;;12.75;100.00;99581.03;5068500;28;20020;-71
2022/10/01 08:16:10;;;;;;;5.32;2.45;;;;;;;12.75;100.00;99586.38;5066409;28;20032;-70
2022/10/01 08:18:36;;;;;;;4.22;2.35;;;;;;;12.73;100.00;99588.28;5068561;28;20047;-70
2022/10/01 08:21:03;;;;;;;8.77;2.30;;;;;;;12.86;100.00;99594.75;5068549;28;20119;-69
2022/10/01 08:23:31;;;;;;;5.40;2.80;;;;;;;12.90;100.00;99607.00;5070152;28;20033;-68
2022/10/01 08:26:07;;;;;;;7.68;3.53;;;;;;;12.87;100.00;99601.81;5069725;28;20545;-68
2022/10/01 08:28:33;;;;;;;5.80;2.50;;;;;;;12.93;100.00;99606.84;5070305;28;20028;-68
2022/10/01 08:31:06;;;;;;;4.43;2.20;;;;;;;12.92;100.00;99613.13;5068682;28;20025;-68
2022/10/01 08:33:33;;;;;;;5.22;2.38;;;;;;;12.91;100.00;99622.09;5069989;28;20399;-68
2022/10/01 08:36:03;;;;;;;3.72;2.22;;;;;;;12.89;100.00;99609.75;5066447;28;20487;-69
2022/10/01 08:38:28;;;;;;;4.68;2.65;;;;;;;12.97;100.00;99619.13;5056072;28;20104;-69
2022/10/01 08:40:53;;;;;;;3.83;2.25;;;;;;;12.94;100.00;99613.94;5052402;28;20131;-69
2022/10/01 08:43:37;;;;;;;4.57;2.03;;;;;;;12.98;100.00;99626.19;5048942;28;20025;-70
2022/10/01 08:46:09;;;;;;;4.10;2.15;;;;;;;12.97;100.00;99621.78;5060877;28;20035;-70
2022/10/01 08:48:42;;;;;;;5.32;1.75;;;;;;;12.97;100.00;99624.47;5068068;28;20122;-69
2022/10/01 08:51:22;;;;;;;6.23;2.13;;;;;;;13.00;100.00;99637.66;5069915;28;20020;-69
2022/10/01 08:54:14;;;;;;;3.35;2.10;;;;;;;13.00;100.00;99634.97;5069475;28;20039;-68
2022/10/01 08:56:45;;;;;;;4.53;2.42;;;;;;;13.03;100.00;99645.53;5069802;28;20052;-68
2022/10/01 08:59:22;;;;;;;5.78;2.92;;;;;;;13.06;100.00;99649.88;5060068;28;20071;-67
2022/10/01 09:01:48;;;;;;;6.15;3.05;;;;;;;13.07;100.00;99640.94;5064614;28;20031;-67
2022/10/01 09:04:14;;;;;;;2.95;2.45;;;;;;;13.02;100.00;99641.16;5067105;28;20476;-68
2022/10/01 09:06:39;;;;;;;5.80;2.72;;;;;;;12.98;100.00;99652.88;5065829;28;20020;-67
2022/10/01 09:09:35;;;;;;;8.80;2.83;;;;;;;13.05;100.00;99642.81;5062242;28;20032;-68
2022/10/01 09:12:30;;;;;;;3.58;2.20;;;;;;;13.03;100.00;99660.72;5063847;28;20088;-67
2022/10/01 09:15:16;;;;;;;3.95;2.03;;;;;;;13.02;100.00;99656.31;5062924;28;20043;-66
2022/10/01 09:17:54;;;;;;;4.03;1.98;;;;;;;13.00;100.00;99653.69;5057086;28;20099;-65
2022/10/01 09:20:31;;;;;;;3.20;2.15;;;;;;;13.00;100.00;99651.00;5062484;28;20042;-66
2022/10/01 09:23:03;;;;;;;4.00;2.40;;;;;;;13.00;100.00;99660.81;5075827;28;20028;-66
2022/10/01 09:25:29;;;;;;;3.90;2.30;;;;;;;13.06;100.00;99655.22;5076067;28;20033;-66
2022/10/01 09:28:14;;;;;;;4.35;2.22;;;;;;;13.06;100.00;99658.75;5076380;28;20028;-66
2022/10/01 09:31:03;;;;;;;4.78;2.85;;;;;;;13.02;100.00;99665.19;5076330;28;20476;-67
2022/10/01 09:33:32;;;;;;;4.43;2.50;;;;;;;13.13;100.00;99662.84;5070392;28;20065;-67
2022/10/01 09:36:15;;;;;;;4.75;2.72;;;;;;;13.07;100.00;99652.47;5070299;28;20399;-68
2022/10/01 09:38:42;;;;;;;3.20;2.33;;;;;;;13.10;100.00;99657.66;5062761;28;20104;-67
2022/10/01 09:41:10;;;;;;;3.72;2.20;;;;;;;13.09;100.00;99650.63;5060569;28;20032;-67
2022/10/01 09:43:38;;;;;;;5.38;2.03;;;;;;;13.13;100.00;99641.50;5075675;28;20025;-67
2022/10/01 09:46:06;;;;;;;5.40;2.40;;;;;;;13.21;100.00;99639.31;5069923;28;20070;-68
2022/10/01 09:48:33;;;;;;;4.03;2.30;;;;;;;13.24;100.00;99638.31;5066034;28;20069;-69
2022/10/01 09:51:24;;;;;;;3.83;2.25;;;;;;;13.28;100.00;99639.03;5061366;28;20101;-69
2022/10/01 09:54:14;;;;;;;5.03;2.53;;;;;;;13.28;100.00;99639.03;5064271;28;20086;-68
2022/10/01 09:56:57;;;;;;;3.20;2.28;;;;;;;13.29;100.00;99644.28;5053924;28;20119;-67
2022/10/01 09:59:33;;;;;;;4.85;2.88;;;;;;;13.30;100.00;99637.13;5054580;28;20029;-67
2022/10/01 10:02:00;;;;;;;6.78;3.53;;;;;;;13.31;100.00;99634.38;5057255;28;20108;-68
2022/10/01 10:04:26;;;;;;;7.32;3.30;;;;;;;13.26;100.00;99619.53;5069012;28;20028;-66
2022/10/01 10:07:00;;;;;;;7.38;3.20;;;;;;;13.31;100.00;99630.84;5074867;28;20115;-67
2022/10/01 10:09:29;;;;;;;4.53;2.95;;;;;;;13.36;100.00;99644.84;5056479;28;20392;-67
2022/10/01 10:11:56;;;;;;;4.45;2.38;;;;;;;13.36;100.00;99647.53;5055871;28;20496;-66
2022/10/01 10:14:35;;;;;;;4.90;2.50;;;;;;;13.43;100.00;99644.47;5069032;28;20128;-66
2022/10/01 10:17:10;;;;;;;3.33;2.45;;;;;;;13.33;100.00;99623.63;5071793;28;20450;-66
2022/10/01 10:19:36;;;;;;;3.20;2.17;;;;;;;13.48;100.00;99644.22;5072554;28;20064;-66
2022/10/01 10:22:23;;;;;;;5.03;2.53;;;;;;;13.55;100.00;99649.19;5060545;28;20067;-67
2022/10/01 10:24:50;;;;;;;6.05;2.65;;;;;;;13.61;100.00;99648.00;5052540;28;20056;-67
2022/10/01 10:27:26;;;;;;;5.05;1.95;;;;;;;13.46;100.00;99625.59;5050710;28;20033;-66
2022/10/01 10:30:03;;;;;;;4.38;2.33;;;;;;;13.66;100.00;99640.63;5069301;28;20063;-65
2022/10/01 10:32:28;;;;;;;2.70;1.83;;;;;;;13.67;100.00;99640.56;5050801;28;20090;-66
2022/10/01 10:34:59;;;;;;;3.35;1.67;;;;;;;13.80;100.00;99648.81;5050868;28;20033;-67
2022/10/01 10:37:29;;;;;;;2.92;1.73;;;;;;;13.69;100.00;99627.13;5050277;28;20107;-66
2022/10/01 10:39:56;;;;;;;4.70;1.80;;;;;;;13.82;100.00;99662.97;5066321;28;20516;-66
2022/10/01 10:42:23;;;;;;;2.63;1.52;;;;;;;13.88;100.00;99657.28;5070435;28;20085;-65
2022/10/01 10:44:51;;;;;;;2.28;1.50;;;;;;;13.87;100.00;99650.22;5055335;28;20484;-66
2022/10/01 10:47:20;;;;;;;2.67;1.77;;;;;;;13.91;100.00;99643.75;5063965;28;20067;-66
2022/10/01 10:50:01;;;;;;;4.43;1.75;;;;;;;14.01;100.00;99642.34;5070180;28;20423;-66
2022/10/01 10:52:35;;;;;;;2.83;1.80;;;;;;;14.00;100.00;99649.50;5068654;28;20028;-65
2022/10/01 10:55:17;;;;;;;3.28;1.50;;;;;;;14.07;100.00;99642.00;5067877;28;20526;-65
2022/10/01 10:57:43;;;;;;;4.20;1.75;;;;;;;14.14;100.00;99643.41;5065348;28;20195;-66
2022/10/01 11:00:12;;;;;;;4.05;1.33;;;;;;;14.14;100.00;99646.09;5050061;28;20124;-66
2022/10/01 11:02:40;;;;;;;2.33;1.20;;;;;;;14.10;100.00;99644.56;5050654;28;20029;-67
2022/10/01 11:05:20;;;;;;;3.25;2.30;;;;;;;14.19;100.00;99636.03;5049352;28;20029;-66
2022/10/01 11:07:49;;;;;;;4.78;1.58;;;;;;;14.32;100.00;99655.84;5049115;28;20039;-66
2022/10/01 11:10:37;;;;;;;3.88;1.88;;;;;;;14.45;100.00;99651.56;5058070;28;20092;-66
2022/10/01 11:13:12;;;;;;;4.70;1.95;;;;;;;14.49;100.00;99648.66;5053739;28;20024;-66
2022/10/01 11:15:53;;;;;;;2.67;1.67;;;;;;;14.59;100.00;99659.72;5061074;28;20040;-66
2022/10/01 11:18:45;;;;;;;1.73;1.30;;;;;;;14.65;100.00;99656.72;5068387;28;20090;-66
2022/10/01 11:21:17;;;;;;;3.85;2.17;;;;;;;14.85;100.00;99671.66;5069294;28;20042;-66
2022/10/01 11:24:06;;;;;;;4.20;2.00;;;;;;;14.92;100.00;99660.56;5066867;28;20028;-67
2022/10/01 11:26:41;;;;;;;4.57;1.55;;;;;;;15.03;100.00;99674.19;5068821;28;20024;-66
2022/10/01 11:29:10;;;;;;;3.90;1.70;;;;;;;15.10;100.00;99680.06;5068847;28;20060;-67
2022/10/01 11:31:45;;;;;;;5.03;2.53;;;;;;;15.10;100.00;99678.28;5049253;28;20475;-66
2022/10/01 11:34:20;;;;;;;3.20;1.45;;;;;;;15.22;100.00;99674.88;5049572;28;20032;-66
2022/10/01 11:37:10;;;;;;;2.08;1.50;;;;;;;15.32;100.00;99664.53;5062275;28;20035;-66
2022/10/01 11:39:38;;;;;;;1.63;1.10;;;;;;;15.45;100.00;99681.66;5054477;28;20039;-66
2022/10/01 11:42:12;;;;;;;2.83;1.00;;;;;;;15.41;100.00;99672.06;5068324;28;20062;-66